createdAt,value
2018-04-20T00:00:04.948Z,15.20
2018-04-20T00:01:04.919Z,14.70
2018-04-20T00:02:04.895Z,14.00
2018-04-20T00:03:04.877Z,13.90
2018-04-20T00:04:04.850Z,14.10
2018-04-20T00:05:04.827Z,13.40
2018-04-20T00:06:04.803Z,13.20
2018-04-20T00:07:04.775Z,14.60
2018-04-20T00:08:04.759Z,17.00
2018-04-20T00:09:04.735Z,18.90
2018-04-20T00:10:04.711Z,21.30
2018-04-20T00:11:04.682Z,17.30
2018-04-20T00:12:04.674Z,15.80
2018-04-20T00:13:04.666Z,14.10
2018-04-20T00:14:04.619Z,14.50
2018-04-20T00:15:04.596Z,14.10
2018-04-20T00:16:04.574Z,14.20
2018-04-20T00:17:04.554Z,14.20
2018-04-20T00:18:04.526Z,13.90
2018-04-20T00:19:04.504Z,14.60
2018-04-20T00:20:04.481Z,13.10
2018-04-20T00:21:04.457Z,13.20
2018-04-20T00:22:04.434Z,14.20
2018-04-20T00:23:04.411Z,14.10
2018-04-20T00:24:04.399Z,14.20
2018-04-20T00:25:04.365Z,14.10
2018-04-20T00:26:04.341Z,13.70
2018-04-20T00:27:04.324Z,14.20
2018-04-20T00:28:04.299Z,13.70
2018-04-20T00:29:04.272Z,14.30
2018-04-20T00:30:04.249Z,13.90
2018-04-20T00:31:04.231Z,13.90
2018-04-20T00:32:04.204Z,13.60
2018-04-20T00:33:04.182Z,14.50
2018-04-20T00:34:04.156Z,13.70
2018-04-20T00:35:04.137Z,13.40
2018-04-20T00:36:04.111Z,14.70
2018-04-20T00:37:04.088Z,14.40
2018-04-20T00:38:04.071Z,14.30
2018-04-20T00:39:04.056Z,14.30
2018-04-20T00:40:04.019Z,13.70
2018-04-20T00:41:03.999Z,14.10
2018-04-20T00:42:03.988Z,14.40
2018-04-20T00:43:03.948Z,14.40
2018-04-20T00:44:03.926Z,14.70
2018-04-20T00:45:03.901Z,13.50
2018-04-20T00:46:03.878Z,15.10
2018-04-20T00:47:03.854Z,15.10
2018-04-20T00:48:03.832Z,15.20
2018-04-20T00:49:03.809Z,14.60
2018-04-20T00:50:04.586Z,14.70
2018-04-20T00:51:03.767Z,15.30
2018-04-20T00:52:03.739Z,14.50
2018-04-20T00:53:03.716Z,14.60
2018-04-20T00:54:03.692Z,14.90
2018-04-20T00:55:03.673Z,15.50
2018-04-20T00:56:03.646Z,15.50
2018-04-20T00:57:03.624Z,15.10
2018-04-20T00:58:03.608Z,16.20
2018-04-20T00:59:03.576Z,14.80
2018-04-20T01:00:03.553Z,15.90
2018-04-20T01:01:03.529Z,16.20
2018-04-20T01:02:03.505Z,15.70
2018-04-20T01:03:03.487Z,16.10
2018-04-20T01:04:03.473Z,17.50
2018-04-20T01:05:03.436Z,16.70
2018-04-20T01:06:03.412Z,16.70
2018-04-20T01:07:03.389Z,16.00
2018-04-20T01:08:03.366Z,16.40
2018-04-20T01:09:03.343Z,16.70
2018-04-20T01:10:03.318Z,16.50
2018-04-20T01:11:03.294Z,15.40
2018-04-20T01:12:03.275Z,15.60
2018-04-20T01:13:03.248Z,15.10
2018-04-20T01:14:03.224Z,16.80
2018-04-20T01:15:03.205Z,15.60
2018-04-20T01:16:03.186Z,16.00
2018-04-20T01:17:03.154Z,16.90
2018-04-20T01:18:03.131Z,16.70
2018-04-20T01:19:03.112Z,16.30
2018-04-20T01:20:03.091Z,15.80
2018-04-20T01:21:03.061Z,16.10
2018-04-20T01:22:03.036Z,17.00
2018-04-20T01:23:03.015Z,17.10
2018-04-20T01:24:02.990Z,17.00
2018-04-20T01:25:02.972Z,16.20
2018-04-20T01:26:02.946Z,17.20
2018-04-20T01:27:02.923Z,17.10
2018-04-20T01:28:02.895Z,16.20
2018-04-20T01:29:02.871Z,17.10
2018-04-20T01:30:02.847Z,17.20
2018-04-20T01:31:02.823Z,17.40
2018-04-20T01:32:02.800Z,17.60
2018-04-20T01:33:02.777Z,18.10
2018-04-20T01:34:02.752Z,17.50
2018-04-20T01:35:02.731Z,16.80
2018-04-20T01:36:02.713Z,17.80
2018-04-20T01:37:02.682Z,18.10
2018-04-20T01:38:02.658Z,17.30
2018-04-20T01:39:02.635Z,17.70
2018-04-20T01:40:02.616Z,17.90
2018-04-20T01:41:02.590Z,17.60
2018-04-20T01:42:02.562Z,18.10
2018-04-20T01:43:02.589Z,18.20
2018-04-20T01:44:02.518Z,18.10
2018-04-20T01:45:02.492Z,18.30
2018-04-20T01:46:02.480Z,18.00
2018-04-20T01:47:02.445Z,18.20
2018-04-20T01:48:02.421Z,17.90
2018-04-20T01:49:02.396Z,17.40
2018-04-20T01:50:02.371Z,18.70
2018-04-20T01:51:02.347Z,18.90
2018-04-20T01:52:02.326Z,18.60
2018-04-20T01:53:02.300Z,20.00
2018-04-20T01:54:02.277Z,20.20
2018-04-20T01:55:02.254Z,19.10
2018-04-20T01:56:02.230Z,19.40
2018-04-20T01:57:02.204Z,19.40
2018-04-20T01:58:02.200Z,22.50
2018-04-20T01:59:02.156Z,22.70
2018-04-20T02:00:02.133Z,21.90
2018-04-20T02:01:02.109Z,21.00
2018-04-20T02:02:02.097Z,19.10
2018-04-20T02:03:02.061Z,19.60
2018-04-20T02:04:02.037Z,19.40
2018-04-20T02:05:02.013Z,19.90
2018-04-20T02:06:01.991Z,19.10
2018-04-20T02:07:01.967Z,19.10
2018-04-20T02:08:01.942Z,19.70
2018-04-20T02:09:01.922Z,20.20
2018-04-20T02:10:01.926Z,20.10
2018-04-20T02:11:01.873Z,20.10
2018-04-20T02:12:01.847Z,20.50
2018-04-20T02:13:01.826Z,19.60
2018-04-20T02:14:01.800Z,19.50
2018-04-20T02:15:01.776Z,18.60
2018-04-20T02:16:01.756Z,19.20
2018-04-20T02:17:01.728Z,19.40
2018-04-20T02:18:01.707Z,19.90
2018-04-20T02:19:01.680Z,19.40
2018-04-20T02:20:01.664Z,20.00
2018-04-20T02:21:01.632Z,19.60
2018-04-20T02:22:01.616Z,19.90
2018-04-20T02:23:01.585Z,19.90
2018-04-20T02:24:01.570Z,20.00
2018-04-20T02:25:01.553Z,21.00
2018-04-20T02:26:01.519Z,19.50
2018-04-20T02:27:01.494Z,20.20
2018-04-20T02:28:01.465Z,19.90
2018-04-20T02:29:01.441Z,21.00
2018-04-20T02:30:01.418Z,20.80
2018-04-20T02:31:01.407Z,20.80
2018-04-20T02:32:01.369Z,20.80
2018-04-20T02:33:01.345Z,21.30
2018-04-20T02:34:01.327Z,19.20
2018-04-20T02:35:01.301Z,19.70
2018-04-20T02:36:01.281Z,20.70
2018-04-20T02:37:01.251Z,20.30
2018-04-20T02:38:01.224Z,20.00
2018-04-20T02:39:01.202Z,19.90
2018-04-20T02:40:01.178Z,18.60
2018-04-20T02:41:01.153Z,20.30
2018-04-20T02:42:01.130Z,20.70
2018-04-20T02:43:01.106Z,19.40
2018-04-20T02:44:01.088Z,21.00
2018-04-20T02:45:01.058Z,20.20
2018-04-20T02:46:01.035Z,20.30
2018-04-20T02:47:01.008Z,21.00
2018-04-20T02:48:00.988Z,20.50
2018-04-20T02:49:00.969Z,19.60
2018-04-20T02:50:00.938Z,21.50
2018-04-20T02:51:00.913Z,21.20
2018-04-20T02:52:00.890Z,20.80
2018-04-20T02:53:00.876Z,20.80
2018-04-20T02:54:00.842Z,21.40
2018-04-20T02:55:00.821Z,20.50
2018-04-20T02:56:00.798Z,20.20
2018-04-20T02:57:00.770Z,20.60
2018-04-20T02:58:00.746Z,20.90
2018-04-20T02:59:00.723Z,21.10
2018-04-20T03:00:00.697Z,21.50
2018-04-20T03:01:00.677Z,20.90
2018-04-20T03:02:00.649Z,20.80
2018-04-20T03:03:00.625Z,21.50
2018-04-20T03:04:00.601Z,20.90
2018-04-20T03:05:00.576Z,20.70
2018-04-20T03:06:00.555Z,20.60
2018-04-20T03:07:00.529Z,21.40
2018-04-20T03:08:00.507Z,21.80
2018-04-20T03:09:00.479Z,22.50
2018-04-20T03:10:00.454Z,22.30
2018-04-20T03:11:00.430Z,21.90
2018-04-20T03:12:00.411Z,22.90
2018-04-20T03:13:00.383Z,22.00
2018-04-20T03:14:00.358Z,21.80
2018-04-20T03:15:00.333Z,22.70
2018-04-20T03:16:00.312Z,22.50
2018-04-20T03:17:00.285Z,21.70
2018-04-20T03:18:00.260Z,22.40
2018-04-20T03:19:00.237Z,22.30
2018-04-20T03:20:00.212Z,22.50
2018-04-20T03:21:00.188Z,22.70
2018-04-20T03:22:00.174Z,22.10
2018-04-20T03:23:00.150Z,22.20
2018-04-20T03:24:00.124Z,22.50
2018-04-20T03:25:00.097Z,23.00
2018-04-20T03:26:00.069Z,22.80
2018-04-20T03:27:00.043Z,23.00
2018-04-20T03:28:00.019Z,24.00
2018-04-20T03:28:59.995Z,22.70
2018-04-20T03:29:59.970Z,23.30
2018-04-20T03:30:59.946Z,22.80
2018-04-20T03:31:59.921Z,23.80
2018-04-20T03:32:59.897Z,23.60
2018-04-20T03:33:59.872Z,23.80
2018-04-20T03:34:59.848Z,23.80
2018-04-20T03:35:59.833Z,23.50
2018-04-20T03:36:59.801Z,23.80
2018-04-20T03:37:59.789Z,24.80
2018-04-20T03:38:59.753Z,25.00
2018-04-20T03:39:59.727Z,22.80
2018-04-20T03:40:59.702Z,24.80
2018-04-20T03:41:59.678Z,24.60
2018-04-20T03:42:59.653Z,24.40
2018-04-20T03:43:59.636Z,24.00
2018-04-20T03:44:59.608Z,25.10
2018-04-20T03:45:59.582Z,24.60
2018-04-20T03:46:59.562Z,24.80
2018-04-20T03:47:59.531Z,25.50
2018-04-20T03:48:59.511Z,25.60
2018-04-20T03:49:59.483Z,25.20
2018-04-20T03:50:59.463Z,25.00
2018-04-20T03:51:59.433Z,24.90
2018-04-20T03:52:59.409Z,24.30
2018-04-20T03:53:59.386Z,25.50
2018-04-20T03:54:59.358Z,25.90
2018-04-20T03:55:59.334Z,24.20
2018-04-20T03:56:59.314Z,25.20
2018-04-20T03:57:59.285Z,25.20
2018-04-20T03:58:59.261Z,24.10
2018-04-20T03:59:59.245Z,25.60
2018-04-20T04:00:59.214Z,25.70
2018-04-20T04:01:59.187Z,27.10
2018-04-20T04:02:59.163Z,27.10
2018-04-20T04:03:59.139Z,28.30
2018-04-20T04:04:59.115Z,26.60
2018-04-20T04:05:59.096Z,27.10
2018-04-20T04:06:59.101Z,26.40
2018-04-20T04:07:59.044Z,26.50
2018-04-20T04:08:59.016Z,25.90
2018-04-20T04:09:58.991Z,27.30
2018-04-20T04:10:58.969Z,25.60
2018-04-20T04:11:58.942Z,24.60
2018-04-20T04:12:58.917Z,27.30
2018-04-20T04:13:58.892Z,26.20
2018-04-20T04:14:58.874Z,26.80
2018-04-20T04:15:58.844Z,24.10
2018-04-20T04:16:58.820Z,26.60
2018-04-20T04:17:58.821Z,25.40
2018-04-20T04:18:58.774Z,25.30
2018-04-20T04:19:58.745Z,26.20
2018-04-20T04:20:58.722Z,27.70
2018-04-20T04:21:58.696Z,25.80
2018-04-20T04:22:58.672Z,25.60
2018-04-20T04:23:58.647Z,25.70
2018-04-20T04:24:58.623Z,26.80
2018-04-20T04:25:58.598Z,27.30
2018-04-20T04:26:58.574Z,26.50
2018-04-20T04:27:58.549Z,25.80
2018-04-20T04:28:58.525Z,26.40
2018-04-20T04:29:58.500Z,27.40
2018-04-20T04:30:58.475Z,26.60
2018-04-20T04:31:58.454Z,26.40
2018-04-20T04:32:58.427Z,26.30
2018-04-20T04:33:58.404Z,25.40
2018-04-20T04:34:58.396Z,26.20
2018-04-20T04:35:58.357Z,25.60
2018-04-20T04:36:58.330Z,27.00
2018-04-20T04:37:58.306Z,26.30
2018-04-20T04:38:58.283Z,25.60
2018-04-20T04:39:58.258Z,24.60
2018-04-20T04:40:58.233Z,24.60
2018-04-20T04:41:58.208Z,25.30
2018-04-20T04:42:58.186Z,25.10
2018-04-20T04:43:58.166Z,24.70
2018-04-20T04:44:58.137Z,25.00
2018-04-20T04:45:58.115Z,24.90
2018-04-20T04:46:58.088Z,26.00
2018-04-20T04:47:58.070Z,26.70
2018-04-20T04:48:58.041Z,27.80
2018-04-20T04:49:58.016Z,27.20
2018-04-20T04:50:57.992Z,26.40
2018-04-20T04:51:57.970Z,26.90
2018-04-20T04:52:57.951Z,27.00
2018-04-20T04:53:57.926Z,26.40
2018-04-20T04:54:57.896Z,25.20
2018-04-20T04:55:57.873Z,25.20
2018-04-20T04:56:57.850Z,24.40
2018-04-20T04:57:57.825Z,25.80
2018-04-20T04:58:57.803Z,27.70
2018-04-20T04:59:57.779Z,26.70
2018-04-20T05:00:57.764Z,26.60
2018-04-20T05:01:57.731Z,25.50
2018-04-20T05:02:57.708Z,26.00
2018-04-20T05:03:57.685Z,25.00
2018-04-20T05:04:57.663Z,25.20
2018-04-20T05:05:57.638Z,25.50
2018-04-20T05:06:57.614Z,25.60
2018-04-20T05:07:57.891Z,25.80
2018-04-20T05:08:57.568Z,25.40
2018-04-20T05:09:57.548Z,24.40
2018-04-20T05:10:57.520Z,27.30
2018-04-20T05:11:57.497Z,28.00
2018-04-20T05:12:57.475Z,26.60
2018-04-20T05:13:57.450Z,26.30
2018-04-20T05:14:57.427Z,26.70
2018-04-20T05:15:57.410Z,24.80
2018-04-20T05:16:57.380Z,26.60
2018-04-20T05:17:57.357Z,27.00
2018-04-20T05:18:57.334Z,25.60
2018-04-20T05:19:57.310Z,30.90
2018-04-20T05:20:57.288Z,30.80
2018-04-20T05:21:57.268Z,30.50
2018-04-20T05:22:57.242Z,31.50
2018-04-20T05:23:57.219Z,30.30
2018-04-20T05:24:57.196Z,32.40
2018-04-20T05:25:57.173Z,27.90
2018-04-20T05:26:57.153Z,26.20
2018-04-20T05:27:57.128Z,24.30
2018-04-20T05:28:57.106Z,23.80
2018-04-20T05:29:57.084Z,22.60
2018-04-20T05:30:57.063Z,24.50
2018-04-20T05:31:57.040Z,22.40
2018-04-20T05:32:57.017Z,22.40
2018-04-20T05:33:56.997Z,22.80
2018-04-20T05:34:56.975Z,22.70
2018-04-20T05:35:56.954Z,20.90
2018-04-20T05:36:56.930Z,21.20
2018-04-20T05:37:56.910Z,21.40
2018-04-20T05:38:56.885Z,21.00
2018-04-20T05:39:56.868Z,21.10
2018-04-20T05:40:56.842Z,21.10
2018-04-20T05:41:56.821Z,20.70
2018-04-20T05:42:56.804Z,22.00
2018-04-20T05:43:56.778Z,22.10
2018-04-20T05:44:56.758Z,22.40
2018-04-20T05:45:56.736Z,23.70
2018-04-20T05:46:56.716Z,23.80
2018-04-20T05:47:56.708Z,22.70
2018-04-20T05:48:56.675Z,21.90
2018-04-20T05:49:56.653Z,21.70
2018-04-20T05:50:56.633Z,22.00
2018-04-20T05:51:56.611Z,20.70
2018-04-20T05:52:56.590Z,20.90
2018-04-20T05:53:56.569Z,20.30
2018-04-20T05:54:56.548Z,21.60
2018-04-20T05:55:56.529Z,20.40
2018-04-20T05:56:56.508Z,21.80
2018-04-20T05:57:56.486Z,21.30
2018-04-20T05:58:56.467Z,21.70
2018-04-20T05:59:56.447Z,22.00
2018-04-20T06:00:56.428Z,21.00
2018-04-20T06:01:56.407Z,21.80
2018-04-20T06:02:56.386Z,21.10
2018-04-20T06:03:56.368Z,21.20
2018-04-20T06:04:56.347Z,21.10
2018-04-20T06:05:56.327Z,21.80
2018-04-20T06:06:56.307Z,21.40
2018-04-20T06:07:56.287Z,20.50
2018-04-20T06:08:56.271Z,21.70
2018-04-20T06:09:56.252Z,21.20
2018-04-20T06:10:56.241Z,21.20
2018-04-20T06:11:56.211Z,20.70
2018-04-20T06:12:56.190Z,21.20
2018-04-20T06:13:56.173Z,21.10
2018-04-20T06:14:56.173Z,20.60
2018-04-20T06:15:56.137Z,21.00
2018-04-20T06:16:56.114Z,19.70
2018-04-20T06:17:56.100Z,20.60
2018-04-20T06:18:56.075Z,20.60
2018-04-20T06:19:56.062Z,21.20
2018-04-20T06:20:56.040Z,20.40
2018-04-20T06:21:56.026Z,19.60
2018-04-20T06:22:56.001Z,19.80
2018-04-20T06:23:55.986Z,20.30
2018-04-20T06:24:55.964Z,20.20
2018-04-20T06:25:55.961Z,20.40
2018-04-20T06:26:55.934Z,19.80
2018-04-20T06:27:55.923Z,19.10
2018-04-20T06:28:55.891Z,20.60
2018-04-20T06:29:55.873Z,19.50
2018-04-20T06:30:55.888Z,19.40
2018-04-20T06:31:55.837Z,19.10
2018-04-20T06:32:55.851Z,20.10
2018-04-20T06:33:55.802Z,19.50
2018-04-20T06:34:55.786Z,19.30
2018-04-20T06:35:56.021Z,18.30
2018-04-20T06:36:55.751Z,18.10
2018-04-20T06:37:55.731Z,19.80
2018-04-20T06:38:55.715Z,19.00
2018-04-20T06:39:55.698Z,18.00
2018-04-20T06:40:55.681Z,17.80
2018-04-20T06:41:55.663Z,19.60
2018-04-20T06:42:55.646Z,18.60
2018-04-20T06:43:55.637Z,17.90
2018-04-20T06:44:55.612Z,18.50
2018-04-20T06:45:55.594Z,20.40
2018-04-20T06:46:55.582Z,20.20
2018-04-20T06:47:55.562Z,20.90
2018-04-20T06:48:55.545Z,20.40
2018-04-20T06:49:55.529Z,18.20
2018-04-20T06:50:55.524Z,19.80
2018-04-20T06:51:55.495Z,18.60
2018-04-20T06:52:55.482Z,18.30
2018-04-20T06:53:55.464Z,18.00
2018-04-20T06:54:55.446Z,18.30
2018-04-20T06:55:55.430Z,19.00
2018-04-20T06:56:55.414Z,17.90
2018-04-20T06:57:55.397Z,19.90
2018-04-20T06:58:55.382Z,17.80
2018-04-20T06:59:55.365Z,18.40
2018-04-20T07:00:55.358Z,17.90
2018-04-20T07:01:55.334Z,18.10
2018-04-20T07:02:55.326Z,18.40
2018-04-20T07:03:55.310Z,17.80
2018-04-20T07:04:55.286Z,17.40
2018-04-20T07:05:55.270Z,17.80
2018-04-20T07:06:55.255Z,17.90
2018-04-20T07:07:55.241Z,17.90
2018-04-20T07:08:55.225Z,18.80
2018-04-20T07:09:55.209Z,18.40
2018-04-20T07:10:55.193Z,17.30
2018-04-20T07:11:55.204Z,18.80
2018-04-20T07:12:55.162Z,18.40
2018-04-20T07:13:55.146Z,17.80
2018-04-20T07:14:55.130Z,18.50
2018-04-20T07:15:55.134Z,18.80
2018-04-20T07:16:55.100Z,17.90
2018-04-20T07:17:55.090Z,19.40
2018-04-20T07:18:55.071Z,17.50
2018-04-20T07:19:55.054Z,18.40
2018-04-20T07:20:55.039Z,17.80
2018-04-20T07:21:55.023Z,17.30
2018-04-20T07:22:55.009Z,16.90
2018-04-20T07:23:54.992Z,18.10
2018-04-20T07:24:54.977Z,17.70
2018-04-20T07:25:54.965Z,17.80
2018-04-20T07:26:54.955Z,16.60
2018-04-20T07:27:54.932Z,17.40
2018-04-20T07:28:54.917Z,17.40
2018-04-20T07:29:54.903Z,18.50
2018-04-20T07:30:54.894Z,18.80
2018-04-20T07:31:54.874Z,17.40
2018-04-20T07:32:54.866Z,19.20
2018-04-20T07:33:54.842Z,16.90
2018-04-20T07:34:54.840Z,18.20
2018-04-20T07:35:54.816Z,17.60
2018-04-20T07:36:54.799Z,18.10
2018-04-20T07:37:54.784Z,19.00
2018-04-20T07:38:54.768Z,18.80
2018-04-20T07:39:54.755Z,18.50
2018-04-20T07:40:54.740Z,17.90
2018-04-20T07:41:54.726Z,17.30
2018-04-20T07:42:54.711Z,16.90
2018-04-20T07:43:54.696Z,18.90
2018-04-20T07:44:54.682Z,18.50
2018-04-20T07:45:54.667Z,19.20
2018-04-20T07:46:54.653Z,19.90
2018-04-20T07:47:54.644Z,17.60
2018-04-20T07:48:54.624Z,18.50
2018-04-20T07:49:54.615Z,17.20
2018-04-20T07:50:54.600Z,18.40
2018-04-20T07:51:54.585Z,18.00
2018-04-20T07:52:54.568Z,18.70
2018-04-20T07:53:54.554Z,17.60
2018-04-20T07:54:54.540Z,18.60
2018-04-20T07:55:54.529Z,18.10
2018-04-20T07:56:54.512Z,17.70
2018-04-20T07:57:54.497Z,18.00
2018-04-20T07:58:54.489Z,18.90
2018-04-20T07:59:54.497Z,18.50
2018-04-20T08:00:54.457Z,17.30
2018-04-20T08:01:54.444Z,17.20
2018-04-20T08:02:54.433Z,18.00
2018-04-20T08:03:54.416Z,17.50
2018-04-20T08:04:54.402Z,17.10
2018-04-20T08:05:54.388Z,18.10
2018-04-20T08:06:54.375Z,17.50
2018-04-20T08:07:54.361Z,17.10
2018-04-20T08:08:54.354Z,17.40
2018-04-20T08:09:54.334Z,17.10
2018-04-20T08:10:54.321Z,17.40
2018-04-20T08:11:54.333Z,17.80
2018-04-20T08:12:54.303Z,16.10
2018-04-20T08:13:54.337Z,17.20
2018-04-20T08:14:54.268Z,17.10
2018-04-20T08:15:54.258Z,16.90
2018-04-20T08:16:54.243Z,17.20
2018-04-20T08:17:54.232Z,16.90
2018-04-20T08:18:54.227Z,17.00
2018-04-20T08:19:54.205Z,15.90
2018-04-20T08:20:54.198Z,15.80
2018-04-20T08:21:54.179Z,16.70
2018-04-20T08:22:54.172Z,16.80
2018-04-20T08:23:54.162Z,15.70
2018-04-20T08:24:54.143Z,17.00
2018-04-20T08:25:54.129Z,16.20
2018-04-20T08:26:54.121Z,16.90
2018-04-20T08:27:54.112Z,16.00
2018-04-20T08:28:54.099Z,15.90
2018-04-20T08:29:54.085Z,16.60
2018-04-20T08:30:54.070Z,15.50
2018-04-20T08:31:54.070Z,15.90
2018-04-20T08:32:54.051Z,17.20
2018-04-20T08:33:54.040Z,15.90
2018-04-20T08:34:54.023Z,17.20
2018-04-20T08:35:54.019Z,16.40
2018-04-20T08:36:54.001Z,15.80
2018-04-20T08:37:53.988Z,15.40
2018-04-20T08:38:53.976Z,16.50
2018-04-20T08:39:53.966Z,16.50
2018-04-20T08:40:53.955Z,15.60
2018-04-20T08:41:53.944Z,15.90
2018-04-20T08:42:53.933Z,15.10
2018-04-20T08:43:53.920Z,15.80
2018-04-20T08:44:53.910Z,15.00
2018-04-20T08:45:53.903Z,15.90
2018-04-20T08:46:53.887Z,15.90
2018-04-20T08:47:53.877Z,15.70
2018-04-20T08:48:53.866Z,15.70
2018-04-20T08:49:53.855Z,15.80
2018-04-20T08:50:53.852Z,15.60
2018-04-20T08:51:53.834Z,16.00
2018-04-20T08:52:53.827Z,16.90
2018-04-20T08:53:53.815Z,15.60
2018-04-20T08:54:53.802Z,16.20
2018-04-20T08:55:53.793Z,16.00
2018-04-20T08:56:53.782Z,16.50
2018-04-20T08:57:53.783Z,15.40
2018-04-20T08:58:53.768Z,15.30
2018-04-20T08:59:53.757Z,15.50
2018-04-20T09:00:53.742Z,15.90
2018-04-20T09:01:53.740Z,16.40
2018-04-20T09:02:53.722Z,15.20
2018-04-20T09:03:53.715Z,14.40
2018-04-20T09:04:53.704Z,14.30
2018-04-20T09:05:53.692Z,13.50
2018-04-20T09:06:53.684Z,13.70
2018-04-20T09:07:53.677Z,13.70
2018-04-20T09:08:53.663Z,12.50
2018-04-20T09:09:53.656Z,12.60
2018-04-20T09:10:53.645Z,12.50
2018-04-20T09:11:53.634Z,12.50
2018-04-20T09:12:53.626Z,11.80
2018-04-20T09:13:53.617Z,11.50
2018-04-20T09:14:53.625Z,11.90
2018-04-20T09:15:53.598Z,12.20
2018-04-20T09:16:53.587Z,11.70
2018-04-20T09:17:53.577Z,12.30
2018-04-20T09:18:53.568Z,12.00
2018-04-20T09:19:53.560Z,11.90
2018-04-20T09:20:53.551Z,11.50
2018-04-20T09:21:53.541Z,11.20
2018-04-20T09:22:53.533Z,11.70
2018-04-20T09:23:53.524Z,10.40
2018-04-20T09:24:53.515Z,10.80
2018-04-20T09:25:53.509Z,10.30
2018-04-20T09:26:53.496Z,10.40
2018-04-20T09:27:53.488Z,10.50
2018-04-20T09:28:53.489Z,10.60
2018-04-20T09:29:53.473Z,10.20
2018-04-20T09:30:53.463Z,9.90
2018-04-20T09:31:53.467Z,10.10
2018-04-20T09:32:53.447Z,9.80
2018-04-20T09:33:53.435Z,9.20
2018-04-20T09:34:53.425Z,9.20
2018-04-20T09:35:53.418Z,8.80
2018-04-20T09:36:53.410Z,8.30
2018-04-20T09:37:53.400Z,9.10
2018-04-20T09:38:53.396Z,7.90
2018-04-20T09:39:53.384Z,8.30
2018-04-20T09:40:53.376Z,7.70
2018-04-20T09:41:53.367Z,7.70
2018-04-20T09:42:53.359Z,7.70
2018-04-20T09:43:53.355Z,7.40
2018-04-20T09:44:53.347Z,7.90
2018-04-20T09:45:53.338Z,7.60
2018-04-20T09:46:53.328Z,7.80
2018-04-20T09:47:53.320Z,7.70
2018-04-20T09:48:53.316Z,7.70
2018-04-20T09:49:53.308Z,6.80
2018-04-20T09:50:53.299Z,7.00
2018-04-20T09:51:53.293Z,6.70
2018-04-20T09:52:53.283Z,6.60
2018-04-20T09:53:53.275Z,6.50
2018-04-20T09:54:53.269Z,6.10
2018-04-20T09:55:53.269Z,6.60
2018-04-20T09:56:53.259Z,6.50
2018-04-20T09:57:53.253Z,6.70
2018-04-20T09:58:53.243Z,6.90
2018-04-20T09:59:53.234Z,6.50
2018-04-20T10:00:53.226Z,6.00
2018-04-20T10:01:53.223Z,6.90
2018-04-20T10:02:53.232Z,7.30
2018-04-20T10:03:53.207Z,6.70
2018-04-20T10:04:53.202Z,7.30
2018-04-20T10:05:53.227Z,7.20
2018-04-20T10:06:53.258Z,6.40
2018-04-20T10:07:53.256Z,6.60
2018-04-20T10:08:53.173Z,6.10
2018-04-20T10:09:53.170Z,5.80
2018-04-20T10:10:53.206Z,6.10
2018-04-20T10:11:53.149Z,5.70
2018-04-20T10:12:53.180Z,6.10
2018-04-20T10:13:53.139Z,6.40
2018-04-20T10:14:53.166Z,6.40
2018-04-20T10:15:53.122Z,6.90
2018-04-20T10:16:53.116Z,7.00
2018-04-20T10:17:53.125Z,6.10
2018-04-20T10:18:53.118Z,5.30
2018-04-20T10:19:53.099Z,5.70
2018-04-20T10:20:53.091Z,5.30
2018-04-20T10:21:53.083Z,5.30
2018-04-20T10:22:53.105Z,5.00
2018-04-20T10:23:53.105Z,5.50
2018-04-20T10:24:53.083Z,5.70
2018-04-20T10:25:53.056Z,6.30
2018-04-20T10:26:53.050Z,5.90
2018-04-20T10:27:53.046Z,6.00
2018-04-20T10:28:53.042Z,6.00
2018-04-20T10:29:53.047Z,5.90
2018-04-20T10:30:53.042Z,6.70
2018-04-20T10:31:53.018Z,6.20
2018-04-20T10:32:53.022Z,6.10
2018-04-20T10:33:53.007Z,4.70
2018-04-20T10:34:53.001Z,5.40
2018-04-20T10:35:52.991Z,5.10
2018-04-20T10:36:52.994Z,5.00
2018-04-20T10:37:53.008Z,5.40
2018-04-20T10:38:53.013Z,5.10
2018-04-20T10:39:52.998Z,5.30
2018-04-20T10:40:52.955Z,4.60
2018-04-20T10:41:52.980Z,4.90
2018-04-20T10:42:52.940Z,6.20
2018-04-20T10:43:52.931Z,6.40
2018-04-20T10:44:52.928Z,6.40
2018-04-20T10:45:52.915Z,6.50
2018-04-20T10:46:52.907Z,6.40
2018-04-20T10:47:52.915Z,4.90
2018-04-20T10:48:52.891Z,4.50
2018-04-20T10:49:52.889Z,5.50
2018-04-20T10:50:52.884Z,5.30
2018-04-20T10:51:52.867Z,4.80
2018-04-20T10:52:52.861Z,5.40
2018-04-20T10:53:52.854Z,4.70
2018-04-20T10:54:52.841Z,5.00
2018-04-20T10:55:52.833Z,5.30
2018-04-20T10:56:52.825Z,5.50
2018-04-20T10:57:52.815Z,5.80
2018-04-20T10:58:52.819Z,4.50
2018-04-20T10:59:52.798Z,4.70
2018-04-20T11:00:52.790Z,4.70
2018-04-20T11:01:52.783Z,4.70
2018-04-20T11:02:52.812Z,4.30
2018-04-20T11:03:52.768Z,5.70
2018-04-20T11:04:52.755Z,5.20
2018-04-20T11:05:52.755Z,6.70
2018-04-20T11:06:52.745Z,6.30
2018-04-20T11:07:52.728Z,6.10
2018-04-20T11:08:52.721Z,5.10
2018-04-20T11:09:52.721Z,4.80
2018-04-20T11:10:52.704Z,5.30
2018-04-20T11:11:52.693Z,5.70
2018-04-20T11:12:52.685Z,5.40
2018-04-20T11:13:52.674Z,4.80
2018-04-20T11:14:52.665Z,5.30
2018-04-20T11:15:52.660Z,4.60
2018-04-20T11:16:52.648Z,4.70
2018-04-20T11:17:52.637Z,4.70
2018-04-20T11:18:52.631Z,5.40
2018-04-20T11:19:52.619Z,5.60
2018-04-20T11:20:52.631Z,6.50
2018-04-20T11:21:52.599Z,5.50
2018-04-20T11:22:52.591Z,6.00
2018-04-20T11:23:52.579Z,5.90
2018-04-20T11:24:52.570Z,5.50
2018-04-20T11:25:52.560Z,5.50
2018-04-20T11:26:52.561Z,6.70
2018-04-20T11:27:52.542Z,5.20
2018-04-20T11:28:52.531Z,6.80
2018-04-20T11:29:52.521Z,6.10
2018-04-20T11:30:52.513Z,5.60
2018-04-20T11:31:52.502Z,5.00
2018-04-20T11:32:52.491Z,5.70
2018-04-20T11:33:52.501Z,5.20
2018-04-20T11:34:52.477Z,5.10
2018-04-20T11:35:52.461Z,6.10
2018-04-20T11:36:52.461Z,7.10
2018-04-20T11:37:52.464Z,8.70
2018-04-20T11:38:52.431Z,8.70
2018-04-20T11:39:52.426Z,7.90
2018-04-20T11:40:52.414Z,7.20
2018-04-20T11:41:52.401Z,6.60
2018-04-20T11:42:52.391Z,5.90
2018-04-20T11:43:52.380Z,6.90
2018-04-20T11:44:52.396Z,7.50
2018-04-20T11:45:52.359Z,7.80
2018-04-20T11:46:52.362Z,8.60
2018-04-20T11:47:52.340Z,6.90
2018-04-20T11:48:52.330Z,8.60
2018-04-20T11:49:52.320Z,8.30
2018-04-20T11:50:52.310Z,8.30
2018-04-20T11:51:52.301Z,9.10
2018-04-20T11:52:52.291Z,10.20
2018-04-20T11:53:52.353Z,8.80
2018-04-20T11:54:52.274Z,8.10
2018-04-20T11:55:52.262Z,9.80
2018-04-20T11:56:52.255Z,10.00
2018-04-20T11:57:52.242Z,10.80
2018-04-20T11:58:52.241Z,11.30
2018-04-20T11:59:52.223Z,9.80
2018-04-20T12:00:52.214Z,7.20
2018-04-20T12:01:52.202Z,9.10
2018-04-20T12:02:52.194Z,9.80
2018-04-20T12:03:52.183Z,9.90
2018-04-20T12:04:52.186Z,11.10
2018-04-20T12:05:52.170Z,12.10
2018-04-20T12:06:52.153Z,11.60
2018-04-20T12:07:52.144Z,11.00
2018-04-20T12:08:52.135Z,14.00
2018-04-20T12:09:52.123Z,14.20
2018-04-20T12:10:52.121Z,13.50
2018-04-20T12:11:52.105Z,12.30
2018-04-20T12:12:52.103Z,12.60
2018-04-20T12:13:52.085Z,10.20
2018-04-20T12:14:52.075Z,10.20
2018-04-20T12:15:52.087Z,9.70
2018-04-20T12:16:52.066Z,12.00
2018-04-20T12:17:52.045Z,12.40
2018-04-20T12:18:52.043Z,13.40
2018-04-20T12:19:52.030Z,10.40
2018-04-20T12:20:52.017Z,10.00
2018-04-20T12:21:52.006Z,11.10
2018-04-20T12:22:51.996Z,13.00
2018-04-20T12:23:52.013Z,10.60
2018-04-20T12:24:51.978Z,10.70
2018-04-20T12:25:51.988Z,13.10
2018-04-20T12:26:51.957Z,15.10
2018-04-20T12:27:51.947Z,15.10
2018-04-20T12:28:51.946Z,14.30
2018-04-20T12:29:51.926Z,17.20
2018-04-20T12:30:51.916Z,16.70
2018-04-20T12:31:51.906Z,16.00
2018-04-20T12:32:52.146Z,13.40
2018-04-20T12:33:51.885Z,15.40
2018-04-20T12:34:51.916Z,14.70
2018-04-20T12:35:51.865Z,13.40
2018-04-20T12:36:51.858Z,13.70
2018-04-20T12:37:51.844Z,13.00
2018-04-20T12:38:51.835Z,13.20
2018-04-20T12:39:51.825Z,13.90
2018-04-20T12:40:51.815Z,15.80
2018-04-20T12:41:51.805Z,15.00
2018-04-20T12:42:51.802Z,13.40
2018-04-20T12:43:51.783Z,12.40
2018-04-20T12:44:51.773Z,11.80
2018-04-20T12:45:51.766Z,13.90
2018-04-20T12:46:51.756Z,17.30
2018-04-20T12:47:51.745Z,19.80
2018-04-20T12:48:51.733Z,18.30
2018-04-20T12:49:51.750Z,16.60
2018-04-20T12:50:51.710Z,18.30
2018-04-20T12:51:51.701Z,19.20
2018-04-20T12:52:51.734Z,18.40
2018-04-20T12:53:51.678Z,16.70
2018-04-20T12:54:51.669Z,16.90
2018-04-20T12:55:51.658Z,17.90
2018-04-20T12:56:51.648Z,13.70